Portada
METAR-TAF:

METAR-TAF

Aeropuertos :

El Cairo, Egipto

Aeropuerto Internacional de El Cairo

latitud: 30-08N, longitud: 031-24E, altitud: 64 m

Observación

El informe se hizo hace 17 minutos, a las 01:00 UTC
Viento 6 kt del oeste-suroeste
Temperatura 16°C
Humedad 59%
Presión 1015 hPa
Visibilidad 10 km o más
Cielo nuboso a una altura de 3000 ft

METAR: HECA 240100Z 24006KT 9999 BKN030 16/08 Q1015 NOSIG

Hora: 03:17 (01:17 UTC)

Pronóstico

El informe se hizo hace 2 horas y 17 minutos, a las 23:00 UTC
Pronóstico válido del 24 a las 00 UTC al 25 a las 06 UTC
Viento 10 kt del oeste-suroeste
Visibilidad 10 km o más
Cielo nuboso a una altura de 3000 ft
Temporalmente
del 24 a las 01 UTC al 24 a las 06 UTC
Viento 3 kt con dirección variable
Visibilidad: 4000 m
calima

TAF: HECA 232300Z 2400/2506 25010KT 9999 BKN030 TEMPO 2401/2406 VRB03KT 4000 HZ

Observaciones y pronósticos meteorológicos de más de 4000 aeropuertos (mensajes METAR y TAF).

Los puntos amarillos y rojos representan las estaciones disponibles.

Ponga el ratón en el punto deseado para ver el nombre de la estación.

Haga clic para ver las observaciones y los pronósticos meteorológicos.

Para cambiar el mapa : haga clic en los botones verdes con una cruz de color negro para hacer un zoom, en el botón verde con un guión para alejar o en las flechas verdes para mapas adyacentes.


METAR-TAF: